createdAt,value
2022-07-31T00:00:07.726Z,1014.32
2022-07-31T00:01:07.676Z,1014.40
2022-07-31T00:02:07.744Z,1014.34
2022-07-31T00:03:07.293Z,1014.34
2022-07-31T00:04:08.499Z,1014.39
2022-07-31T00:05:08.628Z,1014.39
2022-07-31T00:06:08.017Z,1014.40
2022-07-31T00:07:07.177Z,1014.36
2022-07-31T00:08:07.502Z,1014.38
2022-07-31T00:09:08.192Z,1014.39
2022-07-31T00:10:08.019Z,1014.37
2022-07-31T00:11:07.044Z,1014.28
2022-07-31T00:12:07.064Z,1014.33
2022-07-31T00:13:06.951Z,1014.30
2022-07-31T00:14:07.461Z,1014.30
2022-07-31T00:15:13.840Z,1014.34
2022-07-31T00:16:09.730Z,1014.37
2022-07-31T00:17:07.013Z,1014.38
2022-07-31T00:18:07.497Z,1014.35
2022-07-31T00:19:07.674Z,1014.32
2022-07-31T00:20:06.981Z,1014.32
2022-07-31T00:21:06.830Z,1014.26
2022-07-31T00:22:07.621Z,1014.27
2022-07-31T00:23:06.831Z,1014.31
2022-07-31T00:24:07.295Z,1014.29
2022-07-31T00:25:07.430Z,1014.30
2022-07-31T00:26:07.404Z,1014.27
2022-07-31T00:27:07.406Z,1014.24
2022-07-31T00:28:06.745Z,1014.30
2022-07-31T00:29:06.727Z,1014.29
2022-07-31T00:30:06.716Z,1014.22
2022-07-31T00:31:08.625Z,1014.25
2022-07-31T00:32:06.715Z,1014.27
2022-07-31T00:33:06.689Z,1014.24
2022-07-31T00:34:06.676Z,1014.25
2022-07-31T00:35:07.327Z,1014.25
2022-07-31T00:36:07.309Z,1014.26
2022-07-31T00:37:07.543Z,1014.22
2022-07-31T00:38:26.325Z,1014.19
2022-07-31T00:39:08.299Z,1014.18
2022-07-31T00:40:06.619Z,1014.15
2022-07-31T00:41:06.603Z,1014.14
2022-07-31T00:42:07.252Z,1014.16
2022-07-31T00:43:06.598Z,1014.13
2022-07-31T00:44:06.596Z,1014.15
2022-07-31T00:45:07.529Z,1014.15
2022-07-31T00:46:06.694Z,1014.11
2022-07-31T00:47:07.553Z,1014.15
2022-07-31T00:48:07.195Z,1014.11
2022-07-31T00:49:07.261Z,1014.07
2022-07-31T00:50:06.553Z,1014.06
2022-07-31T00:51:07.143Z,1014.07
2022-07-31T00:52:06.505Z,1014.07
2022-07-31T00:53:08.882Z,1014.08
2022-07-31T00:54:08.410Z,1014.05
2022-07-31T00:55:06.418Z,1014.02
2022-07-31T00:56:07.085Z,1014.07
2022-07-31T00:57:06.899Z,1014.05
2022-07-31T00:58:07.333Z,1014.06
2022-07-31T00:59:07.059Z,1014.07
2022-07-31T01:00:07.062Z,1014.06
2022-07-31T01:01:08.391Z,1014.06
2022-07-31T01:02:07.014Z,1014.06
2022-07-31T01:03:07.052Z,1014.06
2022-07-31T01:04:06.545Z,1014.07
2022-07-31T01:05:08.306Z,1014.07
2022-07-31T01:06:06.985Z,1014.06
2022-07-31T01:07:07.257Z,1014.06
2022-07-31T01:08:06.474Z,1014.02
2022-07-31T01:09:06.285Z,1014.05
2022-07-31T01:10:06.947Z,1014.05
2022-07-31T01:11:06.923Z,1014.08
2022-07-31T01:12:06.259Z,1014.06
2022-07-31T01:13:06.900Z,1014.01
2022-07-31T01:14:06.262Z,1014.02
2022-07-31T01:15:06.899Z,1014.00
2022-07-31T01:16:06.210Z,1014.05
2022-07-31T01:17:07.387Z,1014.04
2022-07-31T01:18:06.177Z,1014.05
2022-07-31T01:19:06.167Z,1014.04
2022-07-31T01:20:08.643Z,1014.07
2022-07-31T01:21:07.112Z,1014.03
2022-07-31T01:22:07.088Z,1014.04
2022-07-31T01:23:07.796Z,1014.06
2022-07-31T01:24:07.575Z,1014.02
2022-07-31T01:25:08.574Z,1014.05
2022-07-31T01:26:08.644Z,1014.08
2022-07-31T01:27:07.013Z,1014.12
2022-07-31T01:28:08.518Z,1014.09
2022-07-31T01:29:07.043Z,1014.04
2022-07-31T01:30:06.732Z,1014.07
2022-07-31T01:31:27.131Z,1014.09
2022-07-31T01:32:08.519Z,1014.07
2022-07-31T01:33:06.945Z,1014.07
2022-07-31T01:34:08.490Z,1014.11
2022-07-31T01:35:08.417Z,1014.07
2022-07-31T01:36:08.464Z,1014.09
2022-07-31T01:37:07.127Z,1014.07
2022-07-31T01:38:06.046Z,1014.11
2022-07-31T01:39:08.429Z,1014.04
2022-07-31T01:40:08.450Z,1014.06
2022-07-31T01:41:08.358Z,1014.07
2022-07-31T01:42:08.398Z,1014.09
2022-07-31T01:43:08.359Z,1014.11
2022-07-31T01:44:13.866Z,1014.14
2022-07-31T01:45:07.557Z,1014.10
2022-07-31T01:46:08.306Z,1014.11
2022-07-31T01:47:06.885Z,1014.09
2022-07-31T01:48:06.813Z,1014.08
2022-07-31T01:49:08.299Z,1014.08
2022-07-31T01:50:06.812Z,1014.06
2022-07-31T01:51:08.271Z,1014.03
2022-07-31T01:52:07.022Z,1014.03
2022-07-31T01:53:06.729Z,1014.00
2022-07-31T01:54:06.740Z,1013.96
2022-07-31T01:55:08.235Z,1013.93
2022-07-31T01:56:06.766Z,1013.94
2022-07-31T01:57:07.244Z,1013.91
2022-07-31T01:58:08.215Z,1013.91
2022-07-31T01:59:12.321Z,1013.91
2022-07-31T02:00:06.745Z,1013.90
2022-07-31T02:01:07.445Z,1013.86
2022-07-31T02:02:06.665Z,1013.87
2022-07-31T02:03:09.797Z,1013.87
2022-07-31T02:04:08.149Z,1013.86
2022-07-31T02:05:06.336Z,1013.80
2022-07-31T02:06:08.157Z,1013.78
2022-07-31T02:07:06.587Z,1013.76
2022-07-31T02:08:08.063Z,1013.75
2022-07-31T02:09:08.054Z,1013.66
2022-07-31T02:10:06.554Z,1013.64
2022-07-31T02:11:08.552Z,1013.62
2022-07-31T02:12:09.329Z,1013.64
2022-07-31T02:13:08.049Z,1013.64
2022-07-31T02:14:06.540Z,1013.62
2022-07-31T02:15:08.008Z,1013.64
2022-07-31T02:16:06.229Z,1013.59
2022-07-31T02:17:06.508Z,1013.63
2022-07-31T02:18:08.033Z,1013.61
2022-07-31T02:19:06.195Z,1013.60
2022-07-31T02:20:06.461Z,1013.58
2022-07-31T02:21:06.168Z,1013.59
2022-07-31T02:22:07.915Z,1013.58
2022-07-31T02:23:07.907Z,1013.57
2022-07-31T02:24:07.993Z,1013.58
2022-07-31T02:25:07.875Z,1013.62
2022-07-31T02:26:06.097Z,1013.62
2022-07-31T02:27:06.353Z,1013.63
2022-07-31T02:28:07.341Z,1013.60
2022-07-31T02:29:06.272Z,1013.60
2022-07-31T02:30:06.405Z,1013.66
2022-07-31T02:31:07.831Z,1013.62
2022-07-31T02:32:06.191Z,1013.63
2022-07-31T02:33:06.027Z,1013.63
2022-07-31T02:34:06.037Z,1013.60
2022-07-31T02:35:05.995Z,1013.57
2022-07-31T02:36:06.000Z,1013.58
2022-07-31T02:37:05.373Z,1013.55
2022-07-31T02:38:06.232Z,1013.58
2022-07-31T02:39:08.719Z,1013.59
2022-07-31T02:40:05.950Z,1013.51
2022-07-31T02:41:05.429Z,1013.52
2022-07-31T02:42:05.557Z,1013.52
2022-07-31T02:43:05.321Z,1013.54
2022-07-31T02:44:05.242Z,1013.49
2022-07-31T02:45:07.659Z,1013.50
2022-07-31T02:46:05.246Z,1013.48
2022-07-31T02:47:05.885Z,1013.53
2022-07-31T02:48:05.221Z,1013.48
2022-07-31T02:49:05.232Z,1013.52
2022-07-31T02:50:05.841Z,1013.57
2022-07-31T02:51:05.847Z,1013.50
2022-07-31T02:52:05.705Z,1013.53
2022-07-31T02:53:05.121Z,1013.52
2022-07-31T02:54:05.872Z,1013.53
2022-07-31T02:55:05.109Z,1013.51
2022-07-31T02:56:05.775Z,1013.51
2022-07-31T02:57:05.761Z,1013.56
2022-07-31T02:58:05.082Z,1013.48
2022-07-31T02:59:05.063Z,1013.53
2022-07-31T03:00:05.152Z,1013.49
2022-07-31T03:01:05.143Z,1013.54
2022-07-31T03:02:06.060Z,1013.48
2022-07-31T03:03:05.701Z,1013.48
2022-07-31T03:04:05.022Z,1013.45
2022-07-31T03:05:05.677Z,1013.49
2022-07-31T03:06:05.064Z,1013.48
2022-07-31T03:07:05.661Z,1013.50
2022-07-31T03:08:04.984Z,1013.46
2022-07-31T03:09:05.019Z,1013.47
2022-07-31T03:10:04.965Z,1013.48
2022-07-31T03:11:06.924Z,1013.50
2022-07-31T03:12:05.306Z,1013.46
2022-07-31T03:13:05.580Z,1013.43
2022-07-31T03:14:05.580Z,1013.46
2022-07-31T03:15:04.881Z,1013.45
2022-07-31T03:16:04.954Z,1013.42
2022-07-31T03:17:05.566Z,1013.43
2022-07-31T03:18:08.342Z,1013.45
2022-07-31T03:19:07.289Z,1013.42
2022-07-31T03:20:05.508Z,1013.45
2022-07-31T03:21:04.881Z,1013.48
2022-07-31T03:22:05.954Z,1013.42
2022-07-31T03:23:05.508Z,1013.46
2022-07-31T03:24:05.544Z,1013.41
2022-07-31T03:25:05.465Z,1013.43
2022-07-31T03:26:05.443Z,1013.44
2022-07-31T03:27:04.831Z,1013.40
2022-07-31T03:28:05.132Z,1013.40
2022-07-31T03:29:42.836Z,1013.45
2022-07-31T03:30:08.216Z,1013.40
2022-07-31T03:31:04.704Z,1013.40
2022-07-31T03:32:05.137Z,1013.36
2022-07-31T03:33:05.373Z,1013.39
2022-07-31T03:34:05.393Z,1013.35
2022-07-31T03:35:05.347Z,1013.36
2022-07-31T03:36:05.340Z,1013.38
2022-07-31T03:37:05.315Z,1013.38
2022-07-31T03:38:41.415Z,1013.35
2022-07-31T03:39:08.098Z,1013.33
2022-07-31T03:40:05.297Z,1013.33
2022-07-31T03:41:05.289Z,1013.33
2022-07-31T03:42:05.640Z,1013.34
2022-07-31T03:43:05.255Z,1013.32
2022-07-31T03:44:05.247Z,1013.29
2022-07-31T03:45:04.551Z,1013.28
2022-07-31T03:46:04.547Z,1013.29
2022-07-31T03:47:05.221Z,1013.29
2022-07-31T03:48:05.199Z,1013.27
2022-07-31T03:49:05.250Z,1013.23
2022-07-31T03:50:04.526Z,1013.22
2022-07-31T03:51:04.532Z,1013.27
2022-07-31T03:52:09.960Z,1013.25
2022-07-31T03:53:06.460Z,1013.24
2022-07-31T03:54:04.487Z,1013.17
2022-07-31T03:55:04.473Z,1013.24
2022-07-31T03:56:05.119Z,1013.21
2022-07-31T03:57:04.432Z,1013.14
2022-07-31T03:58:04.420Z,1013.22
2022-07-31T03:59:04.526Z,1013.24
2022-07-31T04:00:04.453Z,1013.16
2022-07-31T04:01:05.075Z,1013.17
2022-07-31T04:02:05.440Z,1013.16
2022-07-31T04:03:04.394Z,1013.13
2022-07-31T04:04:04.911Z,1013.16
2022-07-31T04:05:09.624Z,1013.11
2022-07-31T04:06:05.376Z,1013.13
2022-07-31T04:07:04.347Z,1013.10
2022-07-31T04:08:04.990Z,1013.13
2022-07-31T04:09:15.346Z,1013.11
2022-07-31T04:10:07.275Z,1013.11
2022-07-31T04:11:04.306Z,1013.18
2022-07-31T04:12:04.507Z,1013.12
2022-07-31T04:13:04.954Z,1013.16
2022-07-31T04:14:04.274Z,1013.14
2022-07-31T04:15:04.918Z,1013.14
2022-07-31T04:16:04.902Z,1013.18
2022-07-31T04:17:04.897Z,1013.16
2022-07-31T04:18:04.893Z,1013.18
2022-07-31T04:19:04.230Z,1013.18
2022-07-31T04:20:05.686Z,1013.20
2022-07-31T04:21:04.617Z,1013.18
2022-07-31T04:22:04.583Z,1013.19
2022-07-31T04:23:04.819Z,1013.10
2022-07-31T04:24:04.188Z,1013.07
2022-07-31T04:25:04.815Z,1013.08
2022-07-31T04:26:04.119Z,1013.07
2022-07-31T04:27:05.434Z,1013.05
2022-07-31T04:28:04.123Z,1013.04
2022-07-31T04:29:04.760Z,1013.06
2022-07-31T04:30:04.714Z,1013.04
2022-07-31T04:31:04.063Z,1013.03
2022-07-31T04:32:04.357Z,1013.01
2022-07-31T04:33:04.097Z,1013.04
2022-07-31T04:34:04.069Z,1013.03
2022-07-31T04:35:04.012Z,1013.00
2022-07-31T04:36:03.998Z,1013.01
2022-07-31T04:37:04.012Z,1013.06
2022-07-31T04:38:03.994Z,1013.05
2022-07-31T04:39:04.642Z,1013.10
2022-07-31T04:40:04.050Z,1013.09
2022-07-31T04:41:04.616Z,1013.06
2022-07-31T04:42:04.243Z,1013.08
2022-07-31T04:43:04.657Z,1013.08
2022-07-31T04:44:03.960Z,1013.03
2022-07-31T04:45:03.905Z,1013.08
2022-07-31T04:46:03.950Z,1013.08
2022-07-31T04:47:05.827Z,1013.06
2022-07-31T04:48:03.880Z,1013.06
2022-07-31T04:49:04.601Z,1013.03
2022-07-31T04:50:04.527Z,1013.03
2022-07-31T04:51:04.542Z,1013.07
2022-07-31T04:52:04.053Z,1013.08
2022-07-31T04:53:03.807Z,1013.04
2022-07-31T04:54:03.810Z,1012.99
2022-07-31T04:55:03.884Z,1013.05
2022-07-31T04:56:04.488Z,1013.08
2022-07-31T04:57:04.448Z,1013.09
2022-07-31T04:58:04.447Z,1013.09
2022-07-31T04:59:03.755Z,1013.13
2022-07-31T05:00:03.758Z,1013.15
2022-07-31T05:01:05.207Z,1013.12
2022-07-31T05:02:04.610Z,1013.12
2022-07-31T05:03:03.706Z,1013.09
2022-07-31T05:04:04.441Z,1013.07
2022-07-31T05:05:03.692Z,1013.11
2022-07-31T05:06:04.420Z,1013.04
2022-07-31T05:07:04.343Z,1013.03
2022-07-31T05:08:03.640Z,1013.03
2022-07-31T05:09:08.383Z,1013.04
2022-07-31T05:10:04.635Z,1013.05
2022-07-31T05:11:03.621Z,1013.07
2022-07-31T05:12:04.669Z,1013.06
2022-07-31T05:13:04.283Z,1013.06
2022-07-31T05:14:04.263Z,1013.07
2022-07-31T05:15:04.250Z,1013.08
2022-07-31T05:16:03.563Z,1013.05
2022-07-31T05:17:03.557Z,1013.00
2022-07-31T05:18:04.225Z,1012.99
2022-07-31T05:19:04.216Z,1013.03
2022-07-31T05:20:04.211Z,1013.01
2022-07-31T05:21:03.559Z,1013.01
2022-07-31T05:22:04.424Z,1012.98
2022-07-31T05:23:06.714Z,1013.01
2022-07-31T05:24:03.516Z,1013.02
2022-07-31T05:25:04.147Z,1013.00
2022-07-31T05:26:04.137Z,1012.97
2022-07-31T05:27:04.131Z,1012.99
2022-07-31T05:28:03.439Z,1012.99
2022-07-31T05:29:04.440Z,1013.01
2022-07-31T05:30:04.106Z,1013.01
2022-07-31T05:31:04.098Z,1012.99
2022-07-31T05:32:03.415Z,1013.00
2022-07-31T05:33:04.071Z,1013.00
2022-07-31T05:34:04.051Z,1013.00
2022-07-31T05:35:04.815Z,1013.00
2022-07-31T05:36:04.033Z,1012.99
2022-07-31T05:37:03.409Z,1012.97
2022-07-31T05:38:04.012Z,1012.96
2022-07-31T05:39:04.312Z,1012.96
2022-07-31T05:40:04.000Z,1012.96
2022-07-31T05:41:04.035Z,1012.92
2022-07-31T05:42:04.151Z,1012.90
2022-07-31T05:43:03.955Z,1012.90
2022-07-31T05:44:03.961Z,1012.83
2022-07-31T05:45:05.304Z,1012.86
2022-07-31T05:46:03.933Z,1012.81
2022-07-31T05:47:40.323Z,1012.80
2022-07-31T05:48:35.662Z,1012.83
2022-07-31T05:49:37.096Z,1012.77
2022-07-31T05:50:35.030Z,1012.80
2022-07-31T05:51:35.648Z,1012.78
2022-07-31T05:52:34.951Z,1012.72
2022-07-31T05:53:34.932Z,1012.78
2022-07-31T05:54:35.601Z,1012.72
2022-07-31T05:55:34.928Z,1012.71
2022-07-31T05:56:35.612Z,1012.72
2022-07-31T05:57:35.600Z,1012.70
2022-07-31T05:58:35.572Z,1012.72
2022-07-31T05:59:34.989Z,1012.72
2022-07-31T06:00:34.894Z,1012.72
2022-07-31T06:01:35.590Z,1012.72
2022-07-31T06:02:34.957Z,1012.68
2022-07-31T06:03:51.503Z,1012.69
2022-07-31T06:04:35.807Z,1012.65
2022-07-31T06:05:35.486Z,1012.61
2022-07-31T06:06:35.487Z,1012.65
2022-07-31T06:07:35.460Z,1012.64
2022-07-31T06:08:35.527Z,1012.65
2022-07-31T06:09:35.437Z,1012.66
2022-07-31T06:10:35.441Z,1012.66
2022-07-31T06:11:35.495Z,1012.67
2022-07-31T06:12:35.059Z,1012.67
2022-07-31T06:13:35.388Z,1012.66
2022-07-31T06:14:34.859Z,1012.71
2022-07-31T06:15:36.760Z,1012.74
2022-07-31T06:16:34.700Z,1012.69
2022-07-31T06:17:44.067Z,1012.72
2022-07-31T06:18:35.669Z,1012.74
2022-07-31T06:19:35.348Z,1012.77
2022-07-31T06:20:34.753Z,1012.80
2022-07-31T06:21:34.640Z,1012.82
2022-07-31T06:22:34.652Z,1012.76
2022-07-31T06:23:35.292Z,1012.86
2022-07-31T06:24:35.281Z,1012.88
2022-07-31T06:25:39.052Z,1012.81
2022-07-31T06:26:35.254Z,1012.83
2022-07-31T06:27:35.045Z,1012.86
2022-07-31T06:28:47.569Z,1012.92
2022-07-31T06:29:40.800Z,1012.89
2022-07-31T06:30:35.539Z,1012.84
2022-07-31T06:31:35.194Z,1012.85
2022-07-31T06:32:35.184Z,1012.80
2022-07-31T06:33:37.683Z,1012.74
2022-07-31T06:34:34.496Z,1012.80
2022-07-31T06:35:35.157Z,1012.83
2022-07-31T06:36:35.154Z,1012.77
2022-07-31T06:37:34.506Z,1012.72
2022-07-31T06:38:35.122Z,1012.79
2022-07-31T06:39:55.766Z,1012.79
2022-07-31T06:40:35.429Z,1012.82
2022-07-31T06:41:35.102Z,1012.83
2022-07-31T06:42:34.451Z,1012.85
2022-07-31T06:43:35.086Z,1012.77
2022-07-31T06:44:34.428Z,1012.86
2022-07-31T06:45:50.669Z,1012.89
2022-07-31T06:46:36.321Z,1012.82
2022-07-31T06:47:34.393Z,1012.94
2022-07-31T06:48:35.024Z,1012.85
2022-07-31T06:49:35.087Z,1012.85
2022-07-31T06:50:34.459Z,1012.84
2022-07-31T06:51:34.320Z,1012.80
2022-07-31T06:52:34.978Z,1012.79
2022-07-31T06:53:34.357Z,1012.76
2022-07-31T06:54:34.278Z,1012.77
2022-07-31T06:55:34.332Z,1012.83
2022-07-31T06:56:34.952Z,1012.86
2022-07-31T06:57:34.930Z,1012.78
2022-07-31T06:58:35.018Z,1012.83
2022-07-31T06:59:40.213Z,1012.83
2022-07-31T07:00:35.214Z,1012.79
2022-07-31T07:01:34.239Z,1012.76
2022-07-31T07:02:34.398Z,1012.72
2022-07-31T07:03:34.209Z,1012.77
2022-07-31T07:05:04.814Z,1012.72
2022-07-31T07:05:35.166Z,1012.74
2022-07-31T07:06:34.196Z,1012.75
2022-07-31T07:07:34.141Z,1012.71
2022-07-31T07:08:34.813Z,1012.67
2022-07-31T07:09:34.825Z,1012.68
2022-07-31T07:10:34.113Z,1012.67
2022-07-31T07:11:34.980Z,1012.68
2022-07-31T07:12:34.130Z,1012.67
2022-07-31T07:13:45.299Z,1012.71
2022-07-31T07:14:37.029Z,1012.72
2022-07-31T07:15:34.032Z,1012.72
2022-07-31T07:16:34.723Z,1012.73
2022-07-31T07:17:34.710Z,1012.67
2022-07-31T07:18:34.103Z,1012.64
2022-07-31T07:19:34.001Z,1012.63
2022-07-31T07:20:34.045Z,1012.62
2022-07-31T07:21:34.665Z,1012.64
2022-07-31T07:22:34.057Z,1012.63
2022-07-31T07:23:34.656Z,1012.61
2022-07-31T07:24:34.633Z,1012.58
2022-07-31T07:25:35.925Z,1012.59
2022-07-31T07:26:33.973Z,1012.60
2022-07-31T07:27:34.613Z,1012.57
2022-07-31T07:28:33.908Z,1012.57
2022-07-31T07:29:34.575Z,1012.49
2022-07-31T07:30:34.636Z,1012.54
2022-07-31T07:31:33.873Z,1012.57
2022-07-31T07:32:34.556Z,1012.52
2022-07-31T07:33:40.999Z,1012.55
2022-07-31T07:34:36.807Z,1012.58
2022-07-31T07:35:34.515Z,1012.58
2022-07-31T07:36:33.818Z,1012.56
2022-07-31T07:37:39.211Z,1012.54
2022-07-31T07:38:34.873Z,1012.52
2022-07-31T07:39:34.499Z,1012.54
2022-07-31T07:40:33.811Z,1012.52
2022-07-31T07:41:33.767Z,1012.50
2022-07-31T07:42:33.833Z,1012.51
2022-07-31T07:43:33.748Z,1012.48
2022-07-31T07:44:33.806Z,1012.50
2022-07-31T07:45:33.758Z,1012.45
2022-07-31T07:46:33.770Z,1012.49
2022-07-31T07:47:53.701Z,1012.52
2022-07-31T07:48:34.731Z,1012.49
2022-07-31T07:49:34.473Z,1012.54
2022-07-31T07:50:34.292Z,1012.48
2022-07-31T07:51:34.787Z,1012.49
2022-07-31T07:52:36.124Z,1012.46
2022-07-31T07:53:33.854Z,1012.45
2022-07-31T07:54:33.711Z,1012.48
2022-07-31T07:55:37.384Z,1012.44
2022-07-31T07:56:33.855Z,1012.44
2022-07-31T07:57:35.337Z,1012.45
2022-07-31T07:58:33.665Z,1012.44
2022-07-31T07:59:33.646Z,1012.43
2022-07-31T08:00:33.556Z,1012.43
2022-07-31T08:01:34.438Z,1012.42
2022-07-31T08:02:33.799Z,1012.44
2022-07-31T08:03:48.651Z,1012.42
2022-07-31T08:04:34.560Z,1012.42
2022-07-31T08:05:33.588Z,1012.42
2022-07-31T08:06:33.499Z,1012.43
2022-07-31T08:07:42.099Z,1012.42
2022-07-31T08:08:34.776Z,1012.41
2022-07-31T08:09:34.253Z,1012.39
2022-07-31T08:10:34.250Z,1012.37
2022-07-31T08:11:33.521Z,1012.34
2022-07-31T08:12:34.179Z,1012.39
2022-07-31T08:13:33.526Z,1012.42
2022-07-31T08:14:33.501Z,1012.44
2022-07-31T08:15:33.480Z,1012.44
2022-07-31T08:16:34.085Z,1012.44
2022-07-31T08:17:34.071Z,1012.43
2022-07-31T08:18:33.452Z,1012.42
2022-07-31T08:19:33.674Z,1012.39
2022-07-31T08:20:33.533Z,1012.46
2022-07-31T08:21:33.523Z,1012.40
2022-07-31T08:22:33.845Z,1012.45
2022-07-31T08:23:33.831Z,1012.42
2022-07-31T08:24:33.582Z,1012.42
2022-07-31T08:25:33.644Z,1012.43
2022-07-31T08:26:34.267Z,1012.40
2022-07-31T08:27:38.045Z,1012.39
2022-07-31T08:28:34.395Z,1012.40
2022-07-31T08:29:37.129Z,1012.43
2022-07-31T08:30:33.508Z,1012.46
2022-07-31T08:31:35.098Z,1012.47
2022-07-31T08:32:33.388Z,1012.47
2022-07-31T08:33:33.348Z,1012.47
2022-07-31T08:34:33.887Z,1012.52
2022-07-31T08:35:33.890Z,1012.46
2022-07-31T08:36:33.200Z,1012.50
2022-07-31T08:37:52.440Z,1012.48
2022-07-31T08:38:35.679Z,1012.51
2022-07-31T08:39:33.899Z,1012.53
2022-07-31T08:40:34.866Z,1012.51
2022-07-31T08:41:34.355Z,1012.51
2022-07-31T08:42:33.182Z,1012.51
2022-07-31T08:44:00.047Z,1012.55
2022-07-31T08:44:36.203Z,1012.59
2022-07-31T08:45:36.336Z,1012.59
2022-07-31T08:46:34.195Z,1012.61
2022-07-31T08:47:34.153Z,1012.58
2022-07-31T08:48:33.749Z,1012.58
2022-07-31T08:49:33.185Z,1012.56
2022-07-31T08:50:33.948Z,1012.57
2022-07-31T08:51:33.025Z,1012.54
2022-07-31T08:52:34.085Z,1012.55
2022-07-31T08:53:33.687Z,1012.51
2022-07-31T08:54:33.045Z,1012.51
2022-07-31T08:55:55.212Z,1012.53
2022-07-31T08:56:33.997Z,1012.53
2022-07-31T08:57:33.318Z,1012.53
2022-07-31T08:58:37.236Z,1012.49
2022-07-31T08:59:33.957Z,1012.56
2022-07-31T09:00:33.618Z,1012.52
2022-07-31T09:01:33.513Z,1012.54
2022-07-31T09:02:33.219Z,1012.58
2022-07-31T09:03:33.603Z,1012.56
2022-07-31T09:04:33.132Z,1012.59
2022-07-31T09:05:41.772Z,1012.60
2022-07-31T09:06:36.000Z,1012.61
2022-07-31T09:07:33.542Z,1012.62
2022-07-31T09:08:33.534Z,1012.64
2022-07-31T09:09:50.306Z,1012.61
2022-07-31T09:10:33.841Z,1012.62
2022-07-31T09:11:32.831Z,1012.59
2022-07-31T09:12:35.170Z,1012.62
2022-07-31T09:13:33.486Z,1012.57
2022-07-31T09:14:33.464Z,1012.58
2022-07-31T09:15:33.458Z,1012.58
2022-07-31T09:16:33.064Z,1012.55
2022-07-31T09:17:33.484Z,1012.58
2022-07-31T09:18:33.704Z,1012.60
2022-07-31T09:19:52.755Z,1012.57
2022-07-31T09:20:33.803Z,1012.53
2022-07-31T09:21:32.775Z,1012.52
2022-07-31T09:22:32.889Z,1012.48
2022-07-31T09:23:33.399Z,1012.50
2022-07-31T09:24:36.919Z,1012.52
2022-07-31T09:25:34.358Z,1012.56
2022-07-31T09:26:33.039Z,1012.49
2022-07-31T09:27:32.728Z,1012.51
2022-07-31T09:28:32.692Z,1012.55
2022-07-31T09:29:32.837Z,1012.56
2022-07-31T09:30:32.939Z,1012.56
2022-07-31T09:31:32.668Z,1012.55
2022-07-31T09:32:32.639Z,1012.52
2022-07-31T09:33:32.673Z,1012.53
2022-07-31T09:34:32.665Z,1012.51
2022-07-31T09:35:32.571Z,1012.52
2022-07-31T09:36:32.811Z,1012.51
2022-07-31T09:37:32.562Z,1012.47
2022-07-31T09:38:32.674Z,1012.46
2022-07-31T09:39:32.546Z,1012.48
2022-07-31T09:40:32.649Z,1012.51
2022-07-31T09:41:58.006Z,1012.53
2022-07-31T09:42:33.704Z,1012.48
2022-07-31T09:43:33.273Z,1012.50
2022-07-31T09:44:33.576Z,1012.49
2022-07-31T09:45:32.496Z,1012.54
2022-07-31T09:46:32.489Z,1012.50
2022-07-31T09:47:32.512Z,1012.50
2022-07-31T09:48:32.510Z,1012.51
2022-07-31T09:49:32.521Z,1012.51
2022-07-31T09:50:32.419Z,1012.46
2022-07-31T09:51:32.721Z,1012.47
2022-07-31T09:52:32.498Z,1012.45
2022-07-31T09:53:32.440Z,1012.46
2022-07-31T09:54:33.039Z,1012.38
2022-07-31T09:55:32.556Z,1012.41
2022-07-31T09:56:32.388Z,1012.42
2022-07-31T09:57:32.384Z,1012.39
2022-07-31T09:58:32.462Z,1012.41
2022-07-31T09:59:33.061Z,1012.44
2022-07-31T10:00:33.093Z,1012.39
2022-07-31T10:01:32.424Z,1012.42
2022-07-31T10:02:32.374Z,1012.40
2022-07-31T10:03:32.964Z,1012.44
2022-07-31T10:04:32.321Z,1012.41
2022-07-31T10:05:33.015Z,1012.41
2022-07-31T10:06:32.523Z,1012.44
2022-07-31T10:07:33.039Z,1012.47
2022-07-31T10:08:32.904Z,1012.48
2022-07-31T10:09:32.303Z,1012.47
2022-07-31T10:10:32.319Z,1012.53
2022-07-31T10:11:32.266Z,1012.52
2022-07-31T10:12:32.588Z,1012.57
2022-07-31T10:13:32.857Z,1012.51
2022-07-31T10:14:32.215Z,1012.50
2022-07-31T10:15:32.483Z,1012.49
2022-07-31T10:16:32.841Z,1012.51
2022-07-31T10:17:35.940Z,1012.49
2022-07-31T10:18:36.024Z,1012.46
2022-07-31T10:19:32.130Z,1012.52
2022-07-31T10:20:32.804Z,1012.46
2022-07-31T10:21:32.191Z,1012.47
2022-07-31T10:22:32.090Z,1012.46
2022-07-31T10:23:32.132Z,1012.50
2022-07-31T10:24:32.138Z,1012.45
2022-07-31T10:25:32.128Z,1012.43
2022-07-31T10:26:57.696Z,1012.49
2022-07-31T10:27:33.088Z,1012.46
2022-07-31T10:28:35.061Z,1012.45
2022-07-31T10:29:33.273Z,1012.41
2022-07-31T10:30:32.141Z,1012.42
2022-07-31T10:31:32.364Z,1012.38
2022-07-31T10:32:32.071Z,1012.40
2022-07-31T10:33:47.991Z,1012.37
2022-07-31T10:34:32.965Z,1012.37
2022-07-31T10:35:32.624Z,1012.41
2022-07-31T10:36:32.016Z,1012.41
2022-07-31T10:37:31.968Z,1012.34
2022-07-31T10:38:35.403Z,1012.35
2022-07-31T10:39:35.808Z,1012.35
2022-07-31T10:40:32.568Z,1012.35
2022-07-31T10:41:31.909Z,1012.37
2022-07-31T10:42:32.557Z,1012.38
2022-07-31T10:43:32.566Z,1012.36
2022-07-31T10:44:35.517Z,1012.39
2022-07-31T10:45:32.907Z,1012.39
2022-07-31T10:46:31.834Z,1012.35
2022-07-31T10:47:31.875Z,1012.36
2022-07-31T10:48:32.149Z,1012.35
2022-07-31T10:49:31.919Z,1012.39
2022-07-31T10:50:32.090Z,1012.35
2022-07-31T10:51:31.821Z,1012.37
2022-07-31T10:52:31.866Z,1012.31
2022-07-31T10:53:50.310Z,1012.31
2022-07-31T10:54:32.864Z,1012.32
2022-07-31T10:55:32.422Z,1012.28
2022-07-31T10:56:31.753Z,1012.33
2022-07-31T10:57:32.055Z,1012.29
2022-07-31T10:58:31.843Z,1012.31
2022-07-31T10:59:31.827Z,1012.29
2022-07-31T11:00:31.856Z,1012.26
2022-07-31T11:01:31.771Z,1012.23
2022-07-31T11:02:32.347Z,1012.18
2022-07-31T11:03:32.034Z,1012.23
2022-07-31T11:04:32.324Z,1012.25
2022-07-31T11:05:32.285Z,1012.26
2022-07-31T11:06:34.794Z,1012.22
2022-07-31T11:07:31.776Z,1012.21
2022-07-31T11:08:31.917Z,1012.24
2022-07-31T11:09:31.639Z,1012.23
2022-07-31T11:10:31.822Z,1012.20
2022-07-31T11:11:31.627Z,1012.23
2022-07-31T11:12:31.619Z,1012.22
2022-07-31T11:13:33.583Z,1012.20
2022-07-31T11:14:33.462Z,1012.23
2022-07-31T11:15:31.955Z,1012.20
2022-07-31T11:16:31.636Z,1012.21
2022-07-31T11:18:21.206Z,1012.21
2022-07-31T11:18:34.669Z,1012.24
2022-07-31T11:19:32.366Z,1012.20
2022-07-31T11:20:32.502Z,1012.19
2022-07-31T11:21:38.503Z,1012.17
2022-07-31T11:22:33.274Z,1012.17
2022-07-31T11:23:31.503Z,1012.17
2022-07-31T11:24:31.527Z,1012.18
2022-07-31T11:25:33.344Z,1012.22
2022-07-31T11:26:33.195Z,1012.18
2022-07-31T11:27:32.584Z,1012.17
2022-07-31T11:28:31.505Z,1012.18
2022-07-31T11:29:58.786Z,1012.13
2022-07-31T11:30:32.597Z,1012.10
2022-07-31T11:31:31.399Z,1012.16
2022-07-31T11:32:31.405Z,1012.16
2022-07-31T11:33:38.925Z,1012.16
2022-07-31T11:34:33.878Z,1012.14
2022-07-31T11:35:32.307Z,1012.17
2022-07-31T11:36:31.382Z,1012.16
2022-07-31T11:37:43.329Z,1012.15
2022-07-31T11:38:34.250Z,1012.11
2022-07-31T11:39:37.037Z,1012.09
2022-07-31T11:40:33.175Z,1012.07
2022-07-31T11:41:38.262Z,1012.02
2022-07-31T11:42:36.084Z,1012.02
2022-07-31T11:43:31.241Z,1012.07
2022-07-31T11:44:31.263Z,1012.06
2022-07-31T11:45:33.491Z,1012.03
2022-07-31T11:46:31.333Z,1012.03
2022-07-31T11:48:09.485Z,1011.99
2022-07-31T11:48:38.114Z,1012.00
2022-07-31T11:49:47.723Z,1011.94
2022-07-31T11:50:33.614Z,1011.90
2022-07-31T11:51:31.153Z,1011.90
2022-07-31T11:52:37.079Z,1011.89
2022-07-31T11:53:32.802Z,1011.88
2022-07-31T11:54:31.125Z,1011.88
2022-07-31T11:55:31.234Z,1011.89
2022-07-31T11:56:31.066Z,1011.91
2022-07-31T11:57:51.259Z,1011.91
2022-07-31T11:58:32.289Z,1011.93
2022-07-31T11:59:46.149Z,1011.90
2022-07-31T12:00:32.736Z,1011.91
2022-07-31T12:01:31.731Z,1011.93
2022-07-31T12:02:31.771Z,1011.91
2022-07-31T12:03:31.278Z,1011.88
2022-07-31T12:04:31.082Z,1011.88
2022-07-31T12:05:37.861Z,1011.87